createdAt,value
2024-03-07T00:02:24.940Z,102730.81
2024-03-07T00:04:51.449Z,102720.53
2024-03-07T00:07:17.893Z,102722.22
2024-03-07T00:09:44.791Z,102723.03
2024-03-07T00:12:11.389Z,102719.66
2024-03-07T00:14:37.880Z,102721.34
2024-03-07T00:17:04.546Z,102721.31
2024-03-07T00:19:31.132Z,102725.50
2024-03-07T00:21:58.451Z,102722.81
2024-03-07T00:24:25.476Z,102717.69
2024-03-07T00:26:52.589Z,102719.34
2024-03-07T00:29:20.276Z,102717.56
2024-03-07T00:31:50.136Z,102720.00
2024-03-07T00:34:25.095Z,102714.03
2024-03-07T00:36:53.188Z,102719.88
2024-03-07T00:39:21.049Z,102721.53
2024-03-07T00:41:47.805Z,102716.31
2024-03-07T00:44:14.383Z,102722.19
2024-03-07T00:46:40.812Z,102724.63
2024-03-07T00:49:07.378Z,102727.13
2024-03-07T00:51:34.034Z,102724.50
2024-03-07T00:54:00.592Z,102725.34
2024-03-07T00:56:27.177Z,102720.16
2024-03-07T00:58:53.737Z,102723.47
2024-03-07T01:01:20.725Z,102723.44
2024-03-07T01:03:47.482Z,102716.53
2024-03-07T01:06:14.025Z,102717.28
2024-03-07T01:08:40.860Z,102712.97
2024-03-07T01:11:10.754Z,102711.25
2024-03-07T01:13:37.875Z,102718.88
2024-03-07T01:16:04.672Z,102710.28
2024-03-07T01:18:32.802Z,102712.75
2024-03-07T01:20:59.296Z,102715.28
2024-03-07T01:23:25.907Z,102716.09
2024-03-07T01:25:52.869Z,102703.38
2024-03-07T01:28:19.339Z,102706.66
2024-03-07T01:30:45.769Z,102715.06
2024-03-07T01:33:12.283Z,102707.41
2024-03-07T01:35:38.852Z,102709.94
2024-03-07T01:38:05.351Z,102709.03
2024-03-07T01:40:31.765Z,102710.72
2024-03-07T01:42:58.212Z,102708.88
2024-03-07T01:45:24.640Z,102709.69
2024-03-07T01:47:51.323Z,102707.13
2024-03-07T01:50:18.906Z,102709.59
2024-03-07T01:52:46.246Z,102706.28
2024-03-07T01:55:14.329Z,102702.75
2024-03-07T01:57:41.074Z,102693.47
2024-03-07T02:00:08.743Z,102700.97
2024-03-07T02:02:35.536Z,102697.53
2024-03-07T02:05:02.777Z,102696.63
2024-03-07T02:07:29.630Z,102690.66
2024-03-07T02:10:04.809Z,102686.44
2024-03-07T02:12:31.940Z,102689.78
2024-03-07T02:14:58.943Z,102698.22
2024-03-07T02:17:26.780Z,102698.22
2024-03-07T02:19:53.884Z,102701.81
2024-03-07T02:22:20.808Z,102694.31
2024-03-07T02:24:47.735Z,102692.63
2024-03-07T02:27:15.316Z,102690.97
2024-03-07T02:29:42.588Z,102697.66
2024-03-07T02:32:09.060Z,102694.13
2024-03-07T02:34:35.615Z,102691.72
2024-03-07T02:37:02.081Z,102692.44
2024-03-07T02:39:28.568Z,102691.59
2024-03-07T02:41:55.216Z,102693.22
2024-03-07T02:44:21.696Z,102688.06
2024-03-07T02:46:48.339Z,102680.44
2024-03-07T02:49:15.781Z,102682.13
2024-03-07T02:51:44.909Z,102681.31
2024-03-07T02:54:11.408Z,102677.81
2024-03-07T02:56:37.912Z,102682.84
2024-03-07T02:59:05.121Z,102674.25
2024-03-07T03:01:31.978Z,102680.97
2024-03-07T03:03:58.429Z,102670.00
2024-03-07T03:06:25.086Z,102668.19
2024-03-07T03:08:51.763Z,102668.94
2024-03-07T03:11:18.417Z,102677.38
2024-03-07T03:13:45.035Z,102661.25
2024-03-07T03:16:11.588Z,102665.38
2024-03-07T03:18:38.097Z,102661.03
2024-03-07T03:21:04.757Z,102660.97
2024-03-07T03:23:31.532Z,102652.41
2024-03-07T03:25:58.352Z,102650.72
2024-03-07T03:28:24.883Z,102650.63
2024-03-07T03:30:54.275Z,102645.56
2024-03-07T03:33:22.097Z,102644.66
2024-03-07T03:35:48.818Z,102639.69
2024-03-07T03:38:15.537Z,102646.41
2024-03-07T03:40:42.073Z,102645.50
2024-03-07T03:43:08.732Z,102640.25
2024-03-07T03:45:35.516Z,102636.09
2024-03-07T03:48:02.489Z,102641.06
2024-03-07T03:50:29.881Z,102638.53
2024-03-07T03:52:56.644Z,102643.69
2024-03-07T03:55:23.865Z,102642.75
2024-03-07T03:57:50.945Z,102649.41
2024-03-07T04:00:18.432Z,102646.72
2024-03-07T04:02:49.982Z,102643.97
2024-03-07T04:05:19.066Z,102647.34
2024-03-07T04:07:46.136Z,102639.69
2024-03-07T04:10:13.700Z,102645.53
2024-03-07T04:12:41.817Z,102647.84
2024-03-07T04:15:10.184Z,102651.19
2024-03-07T04:17:37.637Z,102634.22
2024-03-07T04:20:08.976Z,102646.88
2024-03-07T04:22:36.226Z,102638.34
2024-03-07T04:25:03.624Z,102633.19
2024-03-07T04:27:30.332Z,102617.16
2024-03-07T04:29:57.010Z,102633.28
2024-03-07T04:32:24.242Z,102643.25
2024-03-07T04:34:50.726Z,102644.00
2024-03-07T04:37:17.688Z,102632.09
2024-03-07T04:39:44.180Z,102644.66
2024-03-07T04:42:10.976Z,102639.59
2024-03-07T04:44:38.343Z,102636.03
2024-03-07T04:47:05.526Z,102643.69
2024-03-07T04:49:33.929Z,102638.53
2024-03-07T04:52:02.972Z,102638.53
2024-03-07T04:54:30.711Z,102630.84
2024-03-07T04:56:57.199Z,102640.84
2024-03-07T04:59:24.439Z,102637.44
2024-03-07T05:01:51.634Z,102639.97
2024-03-07T05:04:19.462Z,102634.06
2024-03-07T05:06:49.024Z,102630.63
2024-03-07T05:09:24.515Z,102636.53
2024-03-07T05:11:54.212Z,102632.38
2024-03-07T05:14:26.815Z,102636.44
2024-03-07T05:17:22.653Z,102629.69
2024-03-07T05:19:50.942Z,102633.81
2024-03-07T05:22:19.112Z,102632.09
2024-03-07T05:24:46.848Z,102633.66
2024-03-07T05:27:13.754Z,102632.69
2024-03-07T05:29:40.529Z,102634.31
2024-03-07T05:32:24.139Z,102640.13
2024-03-07T05:34:50.986Z,102642.59
2024-03-07T05:37:17.441Z,102644.22
2024-03-07T05:39:43.949Z,102644.16
2024-03-07T05:42:14.993Z,102643.22
2024-03-07T05:44:45.344Z,102642.34
2024-03-07T05:47:14.476Z,102637.22
2024-03-07T05:49:41.508Z,102639.69
2024-03-07T05:52:08.162Z,102632.84
2024-03-07T05:54:37.835Z,102638.72
2024-03-07T05:57:06.882Z,102634.53
2024-03-07T05:59:33.610Z,102639.59
2024-03-07T06:02:00.738Z,102641.19
2024-03-07T06:04:27.176Z,102641.09
2024-03-07T06:06:53.887Z,102648.56
2024-03-07T06:09:23.332Z,102647.66
2024-03-07T06:11:50.683Z,102645.94
2024-03-07T06:14:18.309Z,102636.66
2024-03-07T06:16:45.006Z,102643.44
2024-03-07T06:19:12.530Z,102646.13
2024-03-07T06:21:42.184Z,102644.41
2024-03-07T06:24:11.557Z,102642.72
2024-03-07T06:27:02.345Z,102646.41
2024-03-07T06:29:29.061Z,102650.06
2024-03-07T06:31:56.134Z,102647.00
2024-03-07T06:34:22.830Z,102645.47
2024-03-07T06:36:49.326Z,102652.56
2024-03-07T06:39:16.434Z,102652.75
2024-03-07T06:41:43.454Z,102646.13
2024-03-07T06:44:11.494Z,102646.28
2024-03-07T06:46:38.156Z,102645.56
2024-03-07T06:49:06.819Z,102651.66
2024-03-07T06:51:34.225Z,102642.47
2024-03-07T06:54:00.956Z,102645.97
2024-03-07T06:56:27.608Z,102646.13
2024-03-07T06:58:54.299Z,102638.69
2024-03-07T07:01:21.163Z,102648.16
2024-03-07T07:03:49.480Z,102638.16
2024-03-07T07:06:17.039Z,102641.66
2024-03-07T07:08:46.218Z,102643.53
2024-03-07T07:11:13.472Z,102639.41
2024-03-07T07:13:40.339Z,102630.31
2024-03-07T07:16:07.325Z,102636.34
2024-03-07T07:18:35.118Z,102635.69
2024-03-07T07:21:04.300Z,102640.94
2024-03-07T07:23:31.189Z,102642.81
2024-03-07T07:25:57.650Z,102643.03
2024-03-07T07:28:24.090Z,102640.63
2024-03-07T07:30:50.552Z,102639.91
2024-03-07T07:33:17.249Z,102636.69
2024-03-07T07:35:44.356Z,102638.50
2024-03-07T07:38:12.484Z,102636.16
2024-03-07T07:40:39.849Z,102634.63
2024-03-07T07:43:07.235Z,102641.59
2024-03-07T07:45:36.800Z,102632.97
2024-03-07T07:48:03.886Z,102630.41
2024-03-07T07:50:30.612Z,102626.69
2024-03-07T07:52:58.634Z,102626.41
2024-03-07T07:55:29.274Z,102611.69
2024-03-07T07:57:57.532Z,102613.84
2024-03-07T08:00:26.944Z,102625.34
2024-03-07T08:02:59.000Z,102626.66
2024-03-07T08:05:28.557Z,102621.00
2024-03-07T08:07:59.659Z,102610.28
2024-03-07T08:10:30.126Z,102620.84
2024-03-07T08:13:02.588Z,102613.53
2024-03-07T08:15:31.079Z,102618.94
2024-03-07T08:17:59.160Z,102610.84
2024-03-07T08:20:27.690Z,102612.78
2024-03-07T08:22:56.325Z,102614.53
2024-03-07T08:25:28.091Z,102614.47
2024-03-07T08:27:56.231Z,102618.84
2024-03-07T08:30:24.082Z,102610.47
2024-03-07T08:32:53.535Z,102602.06
2024-03-07T08:35:20.753Z,102599.53
2024-03-07T08:37:55.049Z,102606.41
2024-03-07T08:40:27.795Z,102599.75
2024-03-07T08:42:56.358Z,102599.00
2024-03-07T08:45:23.490Z,102596.53
2024-03-07T08:47:59.031Z,102599.22
2024-03-07T08:50:27.434Z,102601.09
2024-03-07T08:52:54.335Z,102603.81
2024-03-07T08:55:25.221Z,102596.28
2024-03-07T08:57:52.266Z,102594.66
2024-03-07T09:00:27.401Z,102590.53
2024-03-07T09:02:59.760Z,102580.41
2024-03-07T09:05:28.257Z,102579.59
2024-03-07T09:07:55.801Z,102578.00
2024-03-07T09:10:26.847Z,102584.91
2024-03-07T09:12:55.731Z,102582.41
2024-03-07T09:15:23.696Z,102580.00
2024-03-07T09:17:51.087Z,102575.00
2024-03-07T09:20:17.813Z,102575.97
2024-03-07T09:22:45.338Z,102567.56
2024-03-07T09:25:13.729Z,102571.13
2024-03-07T09:27:41.485Z,102571.97
2024-03-07T09:30:16.193Z,102565.03
2024-03-07T09:32:43.212Z,102560.66
2024-03-07T09:35:13.446Z,102570.78
2024-03-07T09:37:44.585Z,102564.88
2024-03-07T09:40:13.140Z,102564.06
2024-03-07T09:42:49.066Z,102560.00
2024-03-07T09:45:18.489Z,102558.28
2024-03-07T09:47:48.822Z,102556.53
2024-03-07T09:50:20.225Z,102548.81
2024-03-07T09:52:50.391Z,102553.91
2024-03-07T09:55:18.725Z,102549.66
2024-03-07T09:57:47.737Z,102549.66
2024-03-07T10:00:23.624Z,102547.09
2024-03-07T10:03:11.130Z,102541.09
2024-03-07T10:05:40.086Z,102546.22
2024-03-07T10:08:08.551Z,102548.78
2024-03-07T10:10:35.382Z,102546.28
2024-03-07T10:13:02.212Z,102550.56
2024-03-07T10:15:34.467Z,102547.13
2024-03-07T10:18:04.270Z,102539.47
2024-03-07T10:20:31.443Z,102538.66
2024-03-07T10:22:58.434Z,102533.53
2024-03-07T10:25:27.494Z,102530.09
2024-03-07T10:27:55.630Z,102527.53
2024-03-07T10:30:26.493Z,102538.59
2024-03-07T10:32:56.626Z,102522.41
2024-03-07T10:35:27.087Z,102517.28
2024-03-07T10:37:57.381Z,102507.06
2024-03-07T10:40:26.478Z,102514.75
2024-03-07T10:42:57.770Z,102504.50
2024-03-07T10:45:24.889Z,102513.88
2024-03-07T10:47:56.990Z,102504.47
2024-03-07T10:50:54.234Z,102500.22
2024-03-07T10:53:47.083Z,102504.50
2024-03-07T10:56:32.417Z,102506.19
2024-03-07T10:59:08.445Z,102493.38
2024-03-07T11:01:40.046Z,102502.78
2024-03-07T11:04:08.294Z,102494.25
2024-03-07T11:06:35.330Z,102501.91
2024-03-07T11:09:11.210Z,102494.25
2024-03-07T11:11:41.936Z,102489.09
2024-03-07T11:14:12.122Z,102495.06
2024-03-07T11:16:41.853Z,102495.09
2024-03-07T11:19:40.970Z,102480.59
2024-03-07T11:22:16.874Z,102484.00
2024-03-07T11:24:46.881Z,102473.75
2024-03-07T11:27:16.450Z,102476.28
2024-03-07T11:29:54.437Z,102482.28
2024-03-07T11:32:25.285Z,102470.31
2024-03-07T11:34:54.921Z,102464.34
2024-03-07T11:37:42.283Z,102469.41
2024-03-07T11:40:09.795Z,102475.34
2024-03-07T11:42:37.067Z,102469.34
2024-03-07T11:45:07.660Z,102468.41
2024-03-07T11:47:42.475Z,102463.28
2024-03-07T11:50:15.254Z,102465.00
2024-03-07T11:52:45.364Z,102466.66
2024-03-07T11:55:12.398Z,102465.03
2024-03-07T11:57:39.775Z,102454.78
2024-03-07T12:00:12.760Z,102448.78
2024-03-07T12:02:40.612Z,102445.28
2024-03-07T12:05:07.834Z,102452.97
2024-03-07T12:07:39.254Z,102445.28
2024-03-07T12:10:06.305Z,102426.44
2024-03-07T12:12:34.454Z,102431.44
2024-03-07T12:15:03.812Z,102425.22
2024-03-07T12:17:32.832Z,102422.44
2024-03-07T12:20:03.666Z,102416.59
2024-03-07T12:22:31.605Z,102425.16
2024-03-07T12:25:03.589Z,102405.59
2024-03-07T12:27:30.773Z,102395.34
2024-03-07T12:29:58.182Z,102403.97
2024-03-07T12:32:26.916Z,102401.53
2024-03-07T12:34:54.139Z,102392.16
2024-03-07T12:37:28.012Z,102379.25
2024-03-07T12:40:02.334Z,102375.78
2024-03-07T12:42:32.060Z,102374.09
2024-03-07T12:45:00.569Z,102366.38
2024-03-07T12:47:27.455Z,102368.03
2024-03-07T12:49:53.927Z,102368.97
2024-03-07T12:52:20.423Z,102363.06
2024-03-07T12:54:49.201Z,102359.66
2024-03-07T12:57:15.840Z,102361.38
2024-03-07T12:59:44.942Z,102356.22
2024-03-07T13:02:13.464Z,102351.94
2024-03-07T13:04:43.266Z,102347.72
2024-03-07T13:07:11.054Z,102338.38
2024-03-07T13:09:39.328Z,102342.66
2024-03-07T13:12:10.537Z,102344.41
2024-03-07T13:14:37.465Z,102343.53
2024-03-07T13:17:05.723Z,102330.69
2024-03-07T13:19:32.452Z,102331.63
2024-03-07T13:21:59.573Z,102329.91
2024-03-07T13:24:28.735Z,102328.16
2024-03-07T13:26:55.637Z,102325.59
2024-03-07T13:29:31.009Z,102324.78
2024-03-07T13:31:57.598Z,102321.34
2024-03-07T13:34:27.001Z,102315.38
2024-03-07T13:36:53.700Z,102318.00
2024-03-07T13:39:20.352Z,102321.38
2024-03-07T13:41:49.431Z,102317.09
2024-03-07T13:44:16.506Z,102310.22
2024-03-07T13:46:42.970Z,102306.84
2024-03-07T13:49:14.169Z,102308.59
2024-03-07T13:51:51.771Z,102300.84
2024-03-07T13:54:35.541Z,102311.09
2024-03-07T13:57:21.344Z,102311.09
2024-03-07T14:00:15.067Z,102302.63
2024-03-07T14:03:19.861Z,102288.94
2024-03-07T14:05:46.373Z,102292.38
2024-03-07T14:08:18.808Z,102294.03
2024-03-07T14:11:16.567Z,102290.56
2024-03-07T14:14:16.157Z,102293.09
2024-03-07T14:16:46.703Z,102285.41
2024-03-07T14:19:47.421Z,102285.41
2024-03-07T14:22:28.692Z,102282.91
2024-03-07T14:25:10.716Z,102286.41
2024-03-07T14:27:51.685Z,102287.28
2024-03-07T14:30:36.296Z,102286.47
2024-03-07T14:33:04.108Z,102295.81
2024-03-07T14:36:02.214Z,102271.88
2024-03-07T14:38:45.172Z,102271.88
2024-03-07T14:41:13.697Z,102282.16
2024-03-07T14:43:42.157Z,102283.97
2024-03-07T14:46:13.663Z,102282.38
2024-03-07T14:48:41.621Z,102273.03
2024-03-07T14:51:10.716Z,102280.69
2024-03-07T14:53:37.398Z,102275.56
2024-03-07T14:56:06.164Z,102281.56
2024-03-07T14:58:32.681Z,102274.75
2024-03-07T15:00:59.216Z,102273.91
2024-03-07T15:03:30.242Z,102271.34
2024-03-07T15:05:57.422Z,102267.94
2024-03-07T15:08:25.423Z,102261.09
2024-03-07T15:11:21.804Z,102270.50
2024-03-07T15:13:48.956Z,102257.69
2024-03-07T15:16:25.794Z,102260.22
2024-03-07T15:18:59.461Z,102255.06
2024-03-07T15:21:26.176Z,102261.03
2024-03-07T15:23:54.237Z,102263.59
2024-03-07T15:26:24.644Z,102255.88
2024-03-07T15:28:53.163Z,102259.34
2024-03-07T15:31:28.917Z,102248.28
2024-03-07T15:33:55.814Z,102243.19
2024-03-07T15:36:23.275Z,102248.34
2024-03-07T15:38:50.541Z,102238.94
2024-03-07T15:41:17.142Z,102237.22
2024-03-07T15:43:46.737Z,102236.44
2024-03-07T15:46:14.151Z,102230.47
2024-03-07T15:48:42.257Z,102232.22
2024-03-07T15:51:13.021Z,102220.31
2024-03-07T15:53:41.990Z,102228.84
2024-03-07T15:56:08.941Z,102223.72
2024-03-07T15:58:35.571Z,102216.91
2024-03-07T16:01:03.476Z,102220.31
2024-03-07T16:03:29.975Z,102217.78
2024-03-07T16:05:57.875Z,102215.25
2024-03-07T16:08:24.773Z,102212.72
2024-03-07T16:10:52.365Z,102212.75
2024-03-07T16:13:19.293Z,102206.75
2024-03-07T16:15:47.161Z,102210.19
2024-03-07T16:18:15.559Z,102196.56
2024-03-07T16:20:45.349Z,102200.84
2024-03-07T16:23:12.935Z,102194.84
2024-03-07T16:25:39.559Z,102193.16
2024-03-07T16:28:12.505Z,102194.84
2024-03-07T16:30:45.436Z,102194.81
2024-03-07T16:33:12.909Z,102193.97
2024-03-07T16:35:39.711Z,102181.19
2024-03-07T16:38:06.294Z,102183.75
2024-03-07T16:40:32.822Z,102186.31
2024-03-07T16:43:01.030Z,102178.66
2024-03-07T16:45:31.998Z,102176.13
2024-03-07T16:48:01.380Z,102173.56
2024-03-07T16:50:31.234Z,102169.31
2024-03-07T16:53:06.636Z,102163.34
2024-03-07T16:55:34.758Z,102174.44
2024-03-07T16:58:12.621Z,102157.41
2024-03-07T17:00:44.441Z,102153.13
2024-03-07T17:03:13.332Z,102156.53
2024-03-07T17:05:42.523Z,102159.97
2024-03-07T17:08:14.059Z,102156.56
2024-03-07T17:10:41.689Z,102156.56
2024-03-07T17:13:13.901Z,102159.13
2024-03-07T17:15:43.101Z,102154.88
2024-03-07T17:18:13.508Z,102162.53
2024-03-07T17:20:41.881Z,102156.53
2024-03-07T17:23:08.991Z,102158.22
2024-03-07T17:25:36.916Z,102153.13
2024-03-07T17:28:03.854Z,102151.41
2024-03-07T17:30:30.441Z,102147.13
2024-03-07T17:33:00.659Z,102155.66
2024-03-07T17:35:30.088Z,102157.34
2024-03-07T17:37:57.829Z,102152.22
2024-03-07T17:40:27.868Z,102151.34
2024-03-07T17:42:55.494Z,102139.44
2024-03-07T17:45:35.134Z,102147.94
2024-03-07T17:48:03.127Z,102160.69
2024-03-07T17:50:31.848Z,102160.69
2024-03-07T17:53:04.539Z,102161.47
2024-03-07T17:55:34.396Z,102167.44
2024-03-07T17:58:04.708Z,102169.13
2024-03-07T18:00:32.986Z,102169.94
2024-03-07T18:03:06.179Z,102172.44
2024-03-07T18:05:38.725Z,102165.66
2024-03-07T18:08:34.057Z,102164.75
2024-03-07T18:11:06.988Z,102167.28
2024-03-07T18:13:34.316Z,102174.06
2024-03-07T18:16:00.921Z,102172.38
2024-03-07T18:18:28.228Z,102175.72
2024-03-07T18:20:55.145Z,102179.94
2024-03-07T18:23:22.485Z,102178.22
2024-03-07T18:25:50.902Z,102176.50
2024-03-07T18:28:21.024Z,102180.72
2024-03-07T18:30:47.724Z,102175.59
2024-03-07T18:33:14.614Z,102169.59
2024-03-07T18:35:43.946Z,102165.34
2024-03-07T18:38:10.650Z,102177.19
2024-03-07T18:40:37.174Z,102172.91
2024-03-07T18:43:12.616Z,102177.16
2024-03-07T18:45:45.317Z,102171.16
2024-03-07T18:48:14.107Z,102166.03
2024-03-07T18:50:48.978Z,102172.00
2024-03-07T18:53:19.742Z,102168.56
2024-03-07T18:55:48.847Z,102165.16
2024-03-07T18:58:17.278Z,102162.63
2024-03-07T19:00:49.482Z,102158.34
2024-03-07T19:03:16.935Z,102170.25
2024-03-07T19:05:50.029Z,102163.41
2024-03-07T19:08:17.172Z,102159.97
2024-03-07T19:10:45.280Z,102158.28
2024-03-07T19:13:14.162Z,102168.41
2024-03-07T19:15:41.967Z,102167.56
2024-03-07T19:18:11.360Z,102159.91
2024-03-07T19:20:40.792Z,102167.53
2024-03-07T19:23:10.103Z,102157.31
2024-03-07T19:25:37.058Z,102159.81
2024-03-07T19:28:08.042Z,102166.59
2024-03-07T19:30:37.152Z,102158.06
2024-03-07T19:33:07.476Z,102158.00
2024-03-07T19:35:36.951Z,102162.22
2024-03-07T19:38:07.461Z,102152.84
2024-03-07T19:40:33.923Z,102157.94
2024-03-07T19:43:02.750Z,102159.59
2024-03-07T19:45:29.195Z,102160.41
2024-03-07T19:47:56.124Z,102143.41
2024-03-07T19:50:22.706Z,102156.13
2024-03-07T19:52:49.248Z,102151.84
2024-03-07T19:55:20.119Z,102149.28
2024-03-07T19:57:49.459Z,102152.66
2024-03-07T20:00:17.392Z,102160.25
2024-03-07T20:02:45.061Z,102154.28
2024-03-07T20:05:17.258Z,102155.09
2024-03-07T20:07:45.552Z,102148.28
2024-03-07T20:10:12.119Z,102149.16
2024-03-07T20:12:43.045Z,102153.34
2024-03-07T20:15:12.979Z,102151.63
2024-03-07T20:17:44.628Z,102153.28
2024-03-07T20:20:15.231Z,102157.53
2024-03-07T20:22:48.976Z,102152.41
2024-03-07T20:25:16.403Z,102151.53
2024-03-07T20:27:49.306Z,102147.22
2024-03-07T20:30:16.671Z,102147.19
2024-03-07T20:32:43.777Z,102136.97
2024-03-07T20:35:11.839Z,102136.13
2024-03-07T20:37:42.097Z,102136.94
2024-03-07T20:40:10.678Z,102142.81
2024-03-07T20:42:39.010Z,102138.53
2024-03-07T20:45:10.639Z,102134.28
2024-03-07T20:47:38.781Z,102134.25
2024-03-07T20:50:07.512Z,102128.25
2024-03-07T20:52:34.127Z,102129.94
2024-03-07T20:55:06.491Z,102130.72
2024-03-07T20:57:33.775Z,102134.91
2024-03-07T21:00:04.698Z,102122.16
2024-03-07T21:02:33.616Z,102127.25
2024-03-07T21:05:00.910Z,102118.75
2024-03-07T21:07:27.400Z,102126.34
2024-03-07T21:09:53.906Z,102116.13
2024-03-07T21:12:20.591Z,102122.00
2024-03-07T21:14:47.149Z,102115.19
2024-03-07T21:17:15.077Z,102114.25
2024-03-07T21:19:41.529Z,102115.97
2024-03-07T21:22:08.012Z,102114.25
2024-03-07T21:24:34.564Z,102110.03
2024-03-07T21:27:03.119Z,102109.97
2024-03-07T21:29:30.694Z,102103.16
2024-03-07T21:31:58.058Z,102103.97
2024-03-07T21:34:24.653Z,102105.66
2024-03-07T21:36:51.179Z,102100.56
2024-03-07T21:39:17.651Z,102093.75
2024-03-07T21:41:44.160Z,102092.84
2024-03-07T21:44:10.622Z,102097.09
2024-03-07T21:46:41.290Z,102086.94
2024-03-07T21:49:08.594Z,102090.31
2024-03-07T21:51:36.668Z,102099.63
2024-03-07T21:54:03.395Z,102096.22
2024-03-07T21:56:31.072Z,102094.50
2024-03-07T21:59:00.668Z,102086.81
2024-03-07T22:01:38.848Z,102087.66
2024-03-07T22:04:06.378Z,102089.34
2024-03-07T22:06:33.795Z,102081.69
2024-03-07T22:09:01.646Z,102082.50
2024-03-07T22:11:28.428Z,102088.41
2024-03-07T22:13:55.057Z,102087.56
2024-03-07T22:16:21.612Z,102082.44
2024-03-07T22:18:48.293Z,102079.84
2024-03-07T22:21:15.025Z,102075.56
2024-03-07T22:23:41.916Z,102080.66
2024-03-07T22:26:13.168Z,102085.75
2024-03-07T22:28:39.841Z,102080.63
2024-03-07T22:31:10.556Z,102073.88
2024-03-07T22:33:38.226Z,102078.13
2024-03-07T22:36:11.482Z,102077.19
2024-03-07T22:38:38.129Z,102070.38
2024-03-07T22:41:07.783Z,102066.94
2024-03-07T22:43:34.491Z,102060.97
2024-03-07T22:46:00.973Z,102058.41
2024-03-07T22:48:27.625Z,102060.06
2024-03-07T22:50:54.164Z,102057.53
2024-03-07T22:53:20.810Z,102060.06
2024-03-07T22:55:47.965Z,102058.31
2024-03-07T22:58:14.486Z,102057.44
2024-03-07T23:00:45.447Z,102044.66
2024-03-07T23:03:15.596Z,102046.31
2024-03-07T23:05:42.478Z,102047.97
2024-03-07T23:08:09.130Z,102047.97
2024-03-07T23:10:35.701Z,102042.00
2024-03-07T23:13:02.781Z,102041.13
2024-03-07T23:15:29.885Z,102032.69
2024-03-07T23:17:58.311Z,102038.56
2024-03-07T23:20:27.315Z,102044.44
2024-03-07T23:22:57.360Z,102029.97
2024-03-07T23:25:25.124Z,102028.25
2024-03-07T23:27:52.946Z,102024.78
2024-03-07T23:30:22.561Z,102029.00
2024-03-07T23:32:51.212Z,102021.38
2024-03-07T23:35:18.652Z,102022.16
2024-03-07T23:37:46.253Z,102004.38
2024-03-07T23:40:14.569Z,102006.03
2024-03-07T23:42:42.610Z,102010.22
2024-03-07T23:45:10.640Z,102005.97
2024-03-07T23:47:37.915Z,102013.53
2024-03-07T23:50:05.437Z,102010.94
2024-03-07T23:52:31.948Z,102005.00
2024-03-07T23:54:58.473Z,102000.72
2024-03-07T23:57:25.163Z,101996.47
2024-03-07T23:59:51.781Z,101992.22
